createdAt,value
2019-02-17T00:00:45.809Z,40.50
2019-02-17T00:03:14.010Z,40.69
2019-02-17T00:05:42.178Z,40.89
2019-02-17T00:08:10.368Z,40.74
2019-02-17T00:10:38.512Z,40.76
2019-02-17T00:13:06.752Z,40.72
2019-02-17T00:15:34.884Z,40.87
2019-02-17T00:18:03.068Z,40.74
2019-02-17T00:20:31.271Z,40.56
2019-02-17T00:22:59.470Z,40.54
2019-02-17T00:25:27.607Z,40.49
2019-02-17T00:27:55.766Z,40.61
2019-02-17T00:30:23.949Z,40.48
2019-02-17T00:32:52.090Z,40.79
2019-02-17T00:35:20.250Z,40.60
2019-02-17T00:37:48.407Z,40.83
2019-02-17T00:40:16.633Z,40.77
2019-02-17T00:42:44.948Z,40.69
2019-02-17T00:45:13.105Z,40.49
2019-02-17T00:47:41.301Z,40.67
2019-02-17T00:50:09.488Z,40.61
2019-02-17T00:52:37.672Z,40.71
2019-02-17T00:55:05.904Z,40.78
2019-02-17T00:57:34.086Z,40.50
2019-02-17T01:00:02.228Z,40.70
2019-02-17T01:02:30.425Z,40.61
2019-02-17T01:04:58.597Z,40.62
2019-02-17T01:07:26.739Z,40.63
2019-02-17T01:09:54.919Z,40.61
2019-02-17T01:12:23.082Z,40.70
2019-02-17T01:14:51.308Z,40.62
2019-02-17T01:17:19.558Z,40.47
2019-02-17T01:19:47.733Z,40.57
2019-02-17T01:22:15.924Z,40.49
2019-02-17T01:24:44.118Z,40.46
2019-02-17T01:27:12.300Z,40.78
2019-02-17T01:29:40.441Z,40.74
2019-02-17T01:32:08.603Z,40.65
2019-02-17T01:34:36.800Z,40.60
2019-02-17T01:37:04.943Z,40.54
2019-02-17T01:39:33.168Z,40.53
2019-02-17T01:42:01.343Z,40.58
2019-02-17T01:44:29.515Z,40.59
2019-02-17T01:46:57.700Z,40.59
2019-02-17T01:49:25.881Z,40.57
2019-02-17T01:51:54.135Z,40.53
2019-02-17T01:54:22.261Z,40.33
2019-02-17T01:56:50.469Z,40.61
2019-02-17T01:59:18.665Z,40.58
2019-02-17T02:01:46.862Z,40.52
2019-02-17T02:04:15.028Z,40.45
2019-02-17T02:06:43.258Z,40.71
2019-02-17T02:09:11.432Z,40.62
2019-02-17T02:11:39.759Z,40.68
2019-02-17T02:14:07.994Z,40.61
2019-02-17T02:16:36.169Z,40.77
2019-02-17T02:19:04.366Z,40.70
2019-02-17T02:21:32.536Z,40.67
2019-02-17T02:24:00.779Z,40.64
2019-02-17T02:26:28.904Z,40.63
2019-02-17T02:28:57.084Z,40.50
2019-02-17T02:31:25.257Z,40.46
2019-02-17T02:33:53.460Z,40.51
2019-02-17T02:36:21.645Z,40.70
2019-02-17T02:38:49.853Z,40.46
2019-02-17T02:41:17.996Z,40.69
2019-02-17T02:43:46.171Z,40.58
2019-02-17T02:48:47.790Z,40.44
2019-02-17T02:51:16.007Z,40.67
2019-02-17T02:53:44.194Z,40.49
2019-02-17T02:56:12.332Z,40.58
2019-02-17T02:58:40.679Z,40.50
2019-02-17T03:03:57.580Z,40.45
2019-02-17T03:06:44.648Z,40.48
2019-02-17T03:09:12.838Z,40.42
2019-02-17T03:11:41.000Z,40.37
2019-02-17T03:14:09.188Z,40.30
2019-02-17T03:16:37.383Z,40.37
2019-02-17T03:19:05.564Z,40.40
2019-02-17T03:21:33.716Z,40.37
2019-02-17T03:24:01.907Z,40.25
2019-02-17T03:26:30.110Z,40.48
2019-02-17T03:28:58.294Z,40.33
2019-02-17T03:31:45.388Z,40.34
2019-02-17T03:34:13.547Z,40.39
2019-02-17T03:36:41.712Z,40.40
2019-02-17T03:39:09.902Z,40.25
2019-02-17T03:41:38.069Z,40.13
2019-02-17T03:44:06.238Z,40.15
2019-02-17T03:46:34.434Z,40.19
2019-02-17T03:49:02.641Z,40.07
2019-02-17T03:51:49.699Z,39.94
2019-02-17T03:54:17.848Z,40.09
2019-02-17T03:56:45.994Z,39.93
2019-02-17T03:59:14.177Z,40.01
2019-02-17T04:01:42.337Z,40.11
2019-02-17T04:04:10.552Z,40.09
2019-02-17T04:06:38.795Z,39.93
2019-02-17T04:09:07.986Z,39.62
2019-02-17T04:11:55.073Z,39.58
2019-02-17T04:14:23.251Z,40.12
2019-02-17T04:16:51.461Z,39.82
2019-02-17T04:19:19.644Z,39.27
2019-02-17T04:21:47.811Z,39.79
2019-02-17T04:24:16.020Z,39.53
2019-02-17T04:26:44.156Z,40.01
2019-02-17T04:29:12.350Z,39.93
2019-02-17T04:31:40.590Z,39.87
2019-02-17T04:34:08.734Z,40.14
2019-02-17T04:36:36.957Z,40.00
2019-02-17T04:39:05.766Z,39.97
2019-02-17T04:41:33.927Z,39.98
2019-02-17T04:44:02.142Z,39.29
2019-02-17T04:46:30.449Z,40.12
2019-02-17T04:48:58.598Z,39.85
2019-02-17T04:51:26.756Z,39.96
2019-02-17T04:53:54.950Z,39.09
2019-02-17T04:56:23.132Z,39.86
2019-02-17T04:58:51.379Z,39.77
2019-02-17T05:01:19.549Z,39.57
2019-02-17T05:03:47.775Z,39.75
2019-02-17T05:06:15.958Z,39.38
2019-02-17T05:08:44.224Z,39.44
2019-02-17T05:11:12.378Z,39.85
2019-02-17T05:13:40.546Z,39.50
2019-02-17T05:16:08.725Z,39.62
2019-02-17T05:18:36.900Z,39.69
2019-02-17T05:21:05.169Z,39.64
2019-02-17T05:23:33.312Z,39.76
2019-02-17T05:26:01.498Z,39.86
2019-02-17T05:28:29.652Z,39.89
2019-02-17T05:30:57.835Z,39.70
2019-02-17T05:33:26.020Z,39.22
2019-02-17T05:35:54.192Z,39.19
2019-02-17T05:38:22.411Z,39.70
2019-02-17T05:40:50.563Z,39.53
2019-02-17T05:43:18.719Z,39.11
2019-02-17T05:45:46.903Z,39.56
2019-02-17T05:48:15.118Z,39.30
2019-02-17T05:53:17.372Z,39.45
2019-02-17T05:55:45.585Z,39.42
2019-02-17T05:58:13.759Z,39.40
2019-02-17T06:00:41.999Z,39.67
2019-02-17T06:03:10.156Z,39.24
2019-02-17T06:05:38.331Z,39.52
2019-02-17T06:08:06.482Z,39.47
2019-02-17T06:10:34.654Z,39.54
2019-02-17T06:13:02.848Z,38.57
2019-02-17T06:15:31.007Z,38.67
2019-02-17T06:17:59.189Z,39.12
2019-02-17T06:20:27.438Z,39.07
2019-02-17T06:22:55.598Z,39.12
2019-02-17T06:25:23.799Z,38.45
2019-02-17T06:27:51.999Z,38.84
2019-02-17T06:30:20.307Z,39.58
2019-02-17T06:32:48.427Z,39.00
2019-02-17T06:35:16.606Z,39.39
2019-02-17T06:37:44.833Z,39.32
2019-02-17T06:40:12.986Z,39.44
2019-02-17T06:42:41.193Z,39.11
2019-02-17T06:45:09.543Z,38.90
2019-02-17T06:50:24.923Z,38.84
2019-02-17T06:52:53.093Z,39.43
2019-02-17T06:55:40.189Z,38.50
2019-02-17T06:58:08.439Z,38.73
2019-02-17T07:00:55.445Z,39.16
2019-02-17T07:03:23.598Z,39.11
2019-02-17T07:06:10.788Z,39.22
2019-02-17T07:08:38.946Z,39.40
2019-02-17T07:11:07.120Z,38.61
2019-02-17T07:13:35.404Z,39.41
2019-02-17T07:16:03.681Z,39.28
2019-02-17T07:18:32.087Z,39.92
2019-02-17T07:21:00.819Z,39.95
2019-02-17T07:23:29.035Z,40.14
2019-02-17T07:25:57.332Z,39.86
2019-02-17T07:31:12.876Z,39.32
2019-02-17T07:36:28.426Z,39.90
2019-02-17T07:38:56.746Z,40.25
2019-02-17T07:41:25.071Z,39.40
2019-02-17T07:43:53.221Z,39.78
2019-02-17T07:46:22.048Z,40.11
2019-02-17T07:48:50.324Z,39.82
2019-02-17T07:51:18.516Z,39.57
2019-02-17T07:53:46.978Z,39.84
2019-02-17T07:56:17.412Z,39.46
2019-02-17T07:58:45.825Z,39.98
2019-02-17T08:01:14.099Z,39.93
2019-02-17T08:03:42.367Z,39.89
2019-02-17T08:06:10.575Z,39.90
2019-02-17T08:08:38.835Z,40.01
2019-02-17T08:11:07.073Z,39.97
2019-02-17T08:13:35.413Z,39.70
2019-02-17T08:16:03.551Z,39.92
2019-02-17T08:18:31.729Z,39.86
2019-02-17T08:20:59.961Z,39.54
2019-02-17T08:23:28.110Z,39.35
2019-02-17T08:25:56.392Z,39.11
2019-02-17T08:28:24.675Z,39.68
2019-02-17T08:30:52.911Z,39.21
2019-02-17T08:33:21.167Z,39.21
2019-02-17T08:35:49.410Z,39.72
2019-02-17T08:38:17.533Z,39.42
2019-02-17T08:40:45.807Z,39.40
2019-02-17T08:43:13.954Z,39.53
2019-02-17T08:45:42.105Z,39.44
2019-02-17T08:48:10.232Z,39.24
2019-02-17T08:50:38.381Z,39.23
2019-02-17T08:53:06.576Z,39.38
2019-02-17T08:55:34.762Z,38.98
2019-02-17T08:58:02.928Z,39.04
2019-02-17T09:00:31.070Z,39.34
2019-02-17T09:02:59.210Z,39.19
2019-02-17T09:05:27.359Z,39.26
2019-02-17T09:07:55.527Z,39.21
2019-02-17T09:10:23.669Z,39.24
2019-02-17T09:12:51.825Z,39.22
2019-02-17T09:15:19.978Z,39.23
2019-02-17T09:17:48.112Z,38.97
2019-02-17T09:20:16.274Z,39.18
2019-02-17T09:22:44.398Z,39.13
2019-02-17T09:25:12.558Z,39.05
2019-02-17T09:27:40.772Z,38.96
2019-02-17T09:30:28.045Z,38.92
2019-02-17T09:32:56.185Z,39.02
2019-02-17T09:35:24.335Z,39.02
2019-02-17T09:37:52.462Z,38.99
2019-02-17T09:40:20.597Z,38.96
2019-02-17T09:42:48.766Z,39.12
2019-02-17T09:45:16.937Z,39.05
2019-02-17T09:47:45.074Z,39.20
2019-02-17T09:50:13.247Z,39.15
2019-02-17T09:52:41.389Z,39.00
2019-02-17T09:55:09.583Z,39.18
2019-02-17T10:00:45.379Z,39.03
2019-02-17T10:03:13.529Z,39.15
2019-02-17T10:05:41.659Z,39.17
2019-02-17T10:08:09.837Z,39.14
2019-02-17T10:10:38.002Z,39.15
2019-02-17T10:13:06.157Z,39.20
2019-02-17T10:15:34.311Z,39.25
2019-02-17T10:18:21.598Z,39.24
2019-02-17T10:20:49.768Z,39.18
2019-02-17T10:23:17.913Z,39.10
2019-02-17T10:25:46.040Z,39.03
2019-02-17T10:28:14.180Z,39.11
2019-02-17T10:30:42.345Z,39.29
2019-02-17T10:33:10.509Z,39.11
2019-02-17T10:35:40.433Z,39.25
2019-02-17T10:38:08.475Z,39.26
2019-02-17T10:40:36.627Z,39.20
2019-02-17T10:43:04.792Z,39.03
2019-02-17T10:45:32.955Z,39.08
2019-02-17T10:48:01.085Z,39.09
2019-02-17T10:50:29.237Z,39.30
2019-02-17T10:52:57.396Z,39.21
2019-02-17T10:55:25.550Z,39.13
2019-02-17T10:57:53.705Z,39.17
2019-02-17T11:00:21.878Z,39.11
2019-02-17T11:02:50.043Z,39.07
2019-02-17T11:05:18.211Z,39.27
2019-02-17T11:07:46.394Z,39.06
2019-02-17T11:10:14.529Z,39.09
2019-02-17T11:12:42.692Z,39.11
2019-02-17T11:15:11.999Z,39.06
2019-02-17T11:17:40.121Z,39.09
2019-02-17T11:20:08.445Z,39.24
2019-02-17T11:22:36.617Z,39.00
2019-02-17T11:25:04.744Z,39.25
2019-02-17T11:27:32.927Z,39.20
2019-02-17T11:30:01.051Z,39.34
2019-02-17T11:32:29.205Z,39.18
2019-02-17T11:34:57.356Z,39.19
2019-02-17T11:37:25.531Z,39.16
2019-02-17T11:39:53.740Z,39.25
2019-02-17T11:42:21.930Z,39.21
2019-02-17T11:44:50.168Z,39.29
2019-02-17T11:47:18.571Z,39.13
2019-02-17T11:50:05.887Z,39.22
2019-02-17T11:52:34.072Z,39.37
2019-02-17T11:55:02.415Z,39.12
2019-02-17T11:57:30.643Z,39.10
2019-02-17T11:59:58.815Z,39.29
2019-02-17T12:02:27.098Z,39.18
2019-02-17T12:04:55.277Z,39.15
2019-02-17T12:07:42.672Z,38.95
2019-02-17T12:10:11.000Z,38.93
2019-02-17T12:12:39.225Z,39.18
2019-02-17T12:15:08.045Z,39.15
2019-02-17T12:17:36.207Z,39.21
2019-02-17T12:20:23.526Z,39.10
2019-02-17T12:22:57.475Z,39.24
2019-02-17T12:25:44.589Z,39.23
2019-02-17T12:28:18.079Z,39.12
2019-02-17T12:33:36.034Z,39.28
2019-02-17T12:36:04.194Z,39.27
2019-02-17T12:38:32.359Z,39.20
2019-02-17T12:41:00.639Z,39.13
2019-02-17T12:43:28.851Z,39.06
2019-02-17T12:45:57.094Z,39.29
2019-02-17T12:48:25.309Z,39.25
2019-02-17T12:51:12.346Z,39.22
2019-02-17T12:53:40.486Z,39.17
2019-02-17T12:56:08.661Z,39.42
2019-02-17T12:58:36.801Z,39.64
2019-02-17T13:01:05.031Z,39.33
2019-02-17T13:03:33.193Z,39.33
2019-02-17T13:06:01.341Z,39.43
2019-02-17T13:08:29.518Z,39.38
2019-02-17T13:10:57.659Z,39.26
2019-02-17T13:13:25.814Z,39.34
2019-02-17T13:15:53.985Z,39.31
2019-02-17T13:18:22.134Z,39.23
2019-02-17T13:20:50.285Z,39.14
2019-02-17T13:23:18.416Z,39.34
2019-02-17T13:25:46.697Z,39.31
2019-02-17T13:28:14.835Z,39.20
2019-02-17T13:30:42.969Z,39.23
2019-02-17T13:33:11.188Z,39.23
2019-02-17T13:35:39.337Z,39.10
2019-02-17T13:38:07.484Z,39.12
2019-02-17T13:40:35.634Z,39.22
2019-02-17T13:43:03.772Z,38.94
2019-02-17T13:45:51.022Z,39.07
2019-02-17T13:48:19.214Z,39.08
2019-02-17T13:50:47.370Z,39.16
2019-02-17T13:53:15.521Z,39.14
2019-02-17T13:55:43.656Z,38.89
2019-02-17T13:58:11.818Z,38.99
2019-02-17T14:00:59.047Z,38.85
2019-02-17T14:03:27.223Z,39.03
2019-02-17T14:05:55.361Z,38.99
2019-02-17T14:08:23.532Z,39.10
2019-02-17T14:10:51.669Z,39.00
2019-02-17T14:13:19.814Z,39.05
2019-02-17T14:15:47.960Z,38.78
2019-02-17T14:18:16.131Z,38.92
2019-02-17T14:20:44.351Z,39.05
2019-02-17T14:23:12.538Z,39.10
2019-02-17T14:25:40.680Z,39.13
2019-02-17T14:28:08.822Z,39.15
2019-02-17T14:30:36.965Z,39.08
2019-02-17T14:33:05.163Z,39.00
2019-02-17T14:35:33.333Z,38.96
2019-02-17T14:38:01.487Z,39.08
2019-02-17T14:40:29.639Z,39.04
2019-02-17T14:42:57.760Z,38.98
2019-02-17T14:45:25.903Z,38.82
2019-02-17T14:47:54.060Z,38.93
2019-02-17T14:50:22.206Z,38.98
2019-02-17T14:52:50.362Z,38.95
2019-02-17T14:55:18.546Z,38.83
2019-02-17T14:57:47.024Z,39.00
2019-02-17T15:02:52.177Z,39.17
2019-02-17T15:05:20.317Z,39.10
2019-02-17T15:07:48.548Z,39.06
2019-02-17T15:10:16.701Z,39.31
2019-02-17T15:12:44.933Z,39.26
2019-02-17T15:15:13.102Z,39.20
2019-02-17T15:17:41.321Z,39.20
2019-02-17T15:20:10.582Z,39.25
2019-02-17T15:22:38.813Z,39.15
2019-02-17T15:25:07.670Z,39.34
2019-02-17T15:27:35.930Z,39.31
2019-02-17T15:30:04.893Z,39.32
2019-02-17T15:32:33.109Z,39.28
2019-02-17T15:37:48.462Z,39.52
2019-02-17T15:40:16.676Z,39.63
2019-02-17T15:42:44.787Z,39.68
2019-02-17T15:45:13.005Z,39.58
2019-02-17T15:47:41.222Z,39.55
2019-02-17T15:50:09.471Z,39.55
2019-02-17T15:52:37.667Z,39.63
2019-02-17T15:55:06.193Z,39.69
2019-02-17T15:57:34.475Z,39.83
2019-02-17T16:00:02.633Z,39.73
2019-02-17T16:02:30.797Z,39.61
2019-02-17T16:04:58.966Z,39.60
2019-02-17T16:07:27.263Z,39.59
2019-02-17T16:10:14.581Z,39.69
2019-02-17T16:12:42.823Z,39.62
2019-02-17T16:17:59.257Z,39.64
2019-02-17T16:23:39.738Z,39.75
2019-02-17T16:26:07.975Z,39.63
2019-02-17T16:28:36.249Z,39.57
2019-02-17T16:31:04.482Z,39.68
2019-02-17T16:33:32.663Z,39.57
2019-02-17T16:36:19.868Z,39.61
2019-02-17T16:38:48.096Z,39.65
2019-02-17T16:41:16.324Z,39.77
2019-02-17T16:43:44.554Z,39.50
2019-02-17T16:46:12.775Z,39.61
2019-02-17T16:48:41.005Z,39.62
2019-02-17T16:51:09.209Z,39.69
2019-02-17T16:56:11.705Z,39.64
2019-02-17T16:58:39.949Z,39.55
2019-02-17T17:01:08.235Z,39.70
2019-02-17T17:06:09.802Z,39.55
2019-02-17T17:08:37.990Z,39.46
2019-02-17T17:11:06.155Z,39.46
2019-02-17T17:13:34.304Z,39.63
2019-02-17T17:16:02.460Z,39.53
2019-02-17T17:18:30.591Z,39.57
2019-02-17T17:20:58.752Z,39.54
2019-02-17T17:26:00.187Z,39.47
2019-02-17T17:28:28.328Z,39.48
2019-02-17T17:31:02.569Z,39.49
2019-02-17T17:33:30.739Z,39.49
2019-02-17T17:35:58.867Z,39.52
2019-02-17T17:38:26.995Z,39.44
2019-02-17T17:40:55.164Z,39.49
2019-02-17T17:43:23.292Z,39.69
2019-02-17T17:45:51.454Z,39.46
2019-02-17T17:48:38.668Z,39.39
2019-02-17T17:51:06.820Z,39.53
2019-02-17T17:56:22.098Z,39.46
2019-02-17T17:58:50.358Z,39.53
2019-02-17T18:01:18.541Z,39.67
2019-02-17T18:03:46.687Z,39.40
2019-02-17T18:06:14.861Z,39.44
2019-02-17T18:08:43.028Z,39.46
2019-02-17T18:11:11.147Z,39.51
2019-02-17T18:13:39.294Z,39.43
2019-02-17T18:16:07.419Z,39.53
2019-02-17T18:18:35.595Z,39.38
2019-02-17T18:21:22.649Z,39.49
2019-02-17T18:23:50.781Z,39.34
2019-02-17T18:26:37.942Z,39.34
2019-02-17T18:29:24.990Z,39.33
2019-02-17T18:31:53.265Z,39.18
2019-02-17T18:34:21.684Z,39.37
2019-02-17T18:36:50.193Z,39.28
2019-02-17T18:39:18.513Z,39.24
2019-02-17T18:41:46.737Z,39.33
2019-02-17T18:44:33.891Z,39.26
2019-02-17T18:47:02.375Z,39.18
2019-02-17T18:49:30.778Z,39.01
2019-02-17T18:52:17.938Z,39.11
2019-02-17T18:54:46.133Z,39.19
2019-02-17T18:57:14.537Z,39.43
2019-02-17T19:00:02.014Z,39.29
2019-02-17T19:02:30.315Z,39.25
2019-02-17T19:04:58.533Z,39.18
2019-02-17T19:07:26.937Z,39.25
2019-02-17T19:10:14.009Z,39.39
2019-02-17T19:12:42.329Z,39.26
2019-02-17T19:15:11.439Z,39.28
2019-02-17T19:17:39.558Z,39.17
2019-02-17T19:20:08.643Z,39.09
2019-02-17T19:22:55.869Z,39.20
2019-02-17T19:25:24.073Z,39.30
2019-02-17T19:27:52.241Z,39.26
2019-02-17T19:30:20.457Z,39.33
2019-02-17T19:32:48.683Z,39.29
2019-02-17T19:35:16.860Z,39.21
2019-02-17T19:37:45.134Z,39.35
2019-02-17T19:40:13.518Z,39.40
2019-02-17T19:42:41.735Z,39.46
2019-02-17T19:45:10.452Z,39.58
2019-02-17T19:47:38.700Z,39.60
2019-02-17T19:50:07.369Z,39.72
2019-02-17T19:52:35.593Z,39.76
2019-02-17T19:55:03.850Z,39.93
2019-02-17T19:57:52.656Z,40.22
2019-02-17T20:00:39.961Z,39.96
2019-02-17T20:03:23.928Z,40.23
2019-02-17T20:06:11.109Z,40.51
2019-02-17T20:08:39.337Z,40.47
2019-02-17T20:11:07.595Z,40.54
2019-02-17T20:13:54.898Z,40.58
2019-02-17T20:16:23.258Z,40.51
2019-02-17T20:18:51.947Z,40.48
2019-02-17T20:21:20.722Z,40.59
2019-02-17T20:23:49.294Z,40.42
2019-02-17T20:26:17.464Z,40.40
2019-02-17T20:28:48.174Z,40.56
2019-02-17T20:31:16.912Z,40.58
2019-02-17T20:33:45.266Z,40.49
2019-02-17T20:36:13.683Z,40.24
2019-02-17T20:38:42.419Z,40.29
2019-02-17T20:41:10.745Z,40.34
2019-02-17T20:43:39.095Z,40.45
2019-02-17T20:46:07.586Z,40.33
2019-02-17T20:48:35.974Z,40.34
2019-02-17T20:53:52.970Z,40.42
2019-02-17T20:56:21.323Z,40.55
2019-02-17T20:58:49.729Z,40.46
2019-02-17T21:01:18.069Z,40.36
2019-02-17T21:03:46.243Z,40.40
2019-02-17T21:06:14.662Z,40.70
2019-02-17T21:08:42.965Z,40.36
2019-02-17T21:11:11.334Z,40.19
2019-02-17T21:13:39.668Z,40.44
2019-02-17T21:16:26.985Z,40.40
2019-02-17T21:18:55.752Z,40.62
2019-02-17T21:21:25.147Z,40.64
2019-02-17T21:23:53.449Z,40.67
2019-02-17T21:26:26.290Z,40.45
2019-02-17T21:28:51.805Z,40.31
2019-02-17T21:31:20.541Z,40.45
2019-02-17T21:33:48.836Z,40.49
2019-02-17T21:36:23.186Z,40.53
2019-02-17T21:38:47.136Z,40.00
2019-02-17T21:41:34.268Z,40.22
2019-02-17T21:44:02.654Z,40.70
2019-02-17T21:46:31.013Z,40.67
2019-02-17T21:48:59.397Z,40.42
2019-02-17T21:54:01.470Z,40.81
2019-02-17T21:56:29.645Z,40.75
2019-02-17T21:59:16.875Z,40.56
2019-02-17T22:01:45.158Z,40.33
2019-02-17T22:04:13.363Z,40.59
2019-02-17T22:06:41.540Z,40.22
2019-02-17T22:09:09.803Z,39.98
2019-02-17T22:11:38.027Z,40.04
2019-02-17T22:14:06.164Z,39.94
2019-02-17T22:16:34.354Z,39.77
2019-02-17T22:19:02.553Z,39.53
2019-02-17T22:21:30.826Z,39.77
2019-02-17T22:23:58.976Z,39.91
2019-02-17T22:26:27.173Z,39.87
2019-02-17T22:28:55.344Z,39.92
2019-02-17T22:31:23.487Z,39.25
2019-02-17T22:33:51.769Z,39.46
2019-02-17T22:36:20.027Z,39.76
2019-02-17T22:38:48.205Z,39.51
2019-02-17T22:41:16.363Z,39.87
2019-02-17T22:43:44.561Z,39.88
2019-02-17T22:46:12.759Z,39.93
2019-02-17T22:48:41.081Z,40.02
2019-02-17T22:51:09.273Z,39.73
2019-02-17T22:53:43.710Z,39.68
2019-02-17T22:56:07.265Z,39.48
2019-02-17T22:58:35.471Z,39.63
2019-02-17T23:01:05.697Z,39.73
2019-02-17T23:03:33.866Z,39.55
2019-02-17T23:06:02.048Z,39.65
2019-02-17T23:08:30.231Z,39.08
2019-02-17T23:10:58.395Z,39.92
2019-02-17T23:13:26.573Z,39.86
2019-02-17T23:15:54.742Z,39.67
2019-02-17T23:18:22.922Z,39.80
2019-02-17T23:20:51.069Z,39.91
2019-02-17T23:23:19.210Z,40.06
2019-02-17T23:25:47.399Z,39.92
2019-02-17T23:28:15.540Z,39.85
2019-02-17T23:30:43.715Z,39.91
2019-02-17T23:33:11.860Z,39.37
2019-02-17T23:35:40.058Z,39.57
2019-02-17T23:38:08.168Z,39.69
2019-02-17T23:40:36.352Z,39.85
2019-02-17T23:43:04.511Z,39.78
2019-02-17T23:45:32.706Z,39.64
2019-02-17T23:48:00.898Z,39.45
2019-02-17T23:50:29.050Z,39.51
2019-02-17T23:52:57.199Z,39.96
2019-02-17T23:55:25.375Z,39.78
2019-02-17T23:57:53.580Z,39.68
